sensor_id;sensor_type;location;lat;lon;timestamp;pressure;altitude;pressure_sealevel;temperature;humidity
21203;BME280;10759;51.982;9.232;2023-03-04T00:00:33;101080.47;;;3.49;100.00
21203;BME280;10759;51.982;9.232;2023-03-04T00:03:01;101083.13;;;3.44;100.00
21203;BME280;10759;51.982;9.232;2023-03-04T00:05:29;101023.03;;;3.23;100.00
21203;BME280;10759;51.982;9.232;2023-03-04T00:07:57;101043.34;;;3.23;100.00
21203;BME280;10759;51.982;9.232;2023-03-04T00:10:25;101076.97;;;3.53;100.00
21203;BME280;10759;51.982;9.232;2023-03-04T00:12:53;101081.38;;;3.54;100.00
21203;BME280;10759;51.982;9.232;2023-03-04T00:15:21;101078.75;;;3.57;100.00
21203;BME280;10759;51.982;9.232;2023-03-04T00:17:51;101078.78;;;3.76;100.00
21203;BME280;10759;51.982;9.232;2023-03-04T00:20:19;101076.97;;;3.64;100.00
21203;BME280;10759;51.982;9.232;2023-03-04T00:22:47;101047.84;;;3.55;100.00
21203;BME280;10759;51.982;9.232;2023-03-04T00:25:15;101034.56;;;3.47;100.00
21203;BME280;10759;51.982;9.232;2023-03-04T00:27:43;101012.47;;;3.36;100.00
21203;BME280;10759;51.982;9.232;2023-03-04T00:30:11;101076.13;;;3.88;100.00
21203;BME280;10759;51.982;9.232;2023-03-04T00:32:41;101077.03;;;3.72;100.00
21203;BME280;10759;51.982;9.232;2023-03-04T00:35:10;101073.47;;;3.60;100.00
21203;BME280;10759;51.982;9.232;2023-03-04T00:37:38;101077.00;;;3.65;100.00
21203;BME280;10759;51.982;9.232;2023-03-04T00:40:07;101054.03;;;3.68;100.00
21203;BME280;10759;51.982;9.232;2023-03-04T00:42:36;101056.66;;;3.74;100.00
21203;BME280;10759;51.982;9.232;2023-03-04T00:45:05;101075.25;;;3.86;100.00
21203;BME280;10759;51.982;9.232;2023-03-04T00:47:33;101046.97;;;3.70;100.00
21203;BME280;10759;51.982;9.232;2023-03-04T00:50:01;101031.91;;;3.69;99.08
21203;BME280;10759;51.982;9.232;2023-03-04T00:52:30;100983.31;;;3.36;99.42
21203;BME280;10759;51.982;9.232;2023-03-04T00:54:58;101078.78;;;3.96;99.52
21203;BME280;10759;51.982;9.232;2023-03-04T00:57:27;101066.41;;;3.78;99.89
21203;BME280;10759;51.982;9.232;2023-03-04T00:59:55;101034.56;;;3.52;100.00
21203;BME280;10759;51.982;9.232;2023-03-04T01:02:23;101077.03;;;3.82;100.00
21203;BME280;10759;51.982;9.232;2023-03-04T01:04:52;101080.53;;;3.91;100.00
21203;BME280;10759;51.982;9.232;2023-03-04T01:07:20;101076.13;;;3.93;99.12
21203;BME280;10759;51.982;9.232;2023-03-04T01:09:50;101071.72;;;3.99;99.28
21203;BME280;10759;51.982;9.232;2023-03-04T01:12:18;101077.03;;;4.02;98.99
21203;BME280;10759;51.982;9.232;2023-03-04T01:14:46;101074.34;;;4.05;99.31
21203;BME280;10759;51.982;9.232;2023-03-04T01:17:13;101062.00;;;4.00;98.41
21203;BME280;10759;51.982;9.232;2023-03-04T01:19:41;101076.16;;;4.06;98.67
21203;BME280;10759;51.982;9.232;2023-03-04T01:22:10;101069.94;;;4.04;98.48
21203;BME280;10759;51.982;9.232;2023-03-04T01:24:39;101024.00;;;3.72;98.77
21203;BME280;10759;51.982;9.232;2023-03-04T01:27:09;101070.81;;;3.96;99.12
21203;BME280;10759;51.982;9.232;2023-03-04T01:29:37;101066.41;;;3.99;98.53
21203;BME280;10759;51.982;9.232;2023-03-04T01:32:05;101058.44;;;4.01;98.83
21203;BME280;10759;51.982;9.232;2023-03-04T01:34:33;100984.19;;;3.52;98.67
21203;BME280;10759;51.982;9.232;2023-03-04T01:37:03;101049.59;;;3.91;99.62
21203;BME280;10759;51.982;9.232;2023-03-04T01:39:30;101036.34;;;3.96;99.25
21203;BME280;10759;51.982;9.232;2023-03-04T01:41:58;101044.28;;;4.08;98.97
21203;BME280;10759;51.982;9.232;2023-03-04T01:44:28;101044.31;;;4.05;98.94
21203;BME280;10759;51.982;9.232;2023-03-04T01:46:56;101037.25;;;4.07;98.88
21203;BME280;10759;51.982;9.232;2023-03-04T01:49:24;101037.25;;;4.07;99.27
21203;BME280;10759;51.982;9.232;2023-03-04T01:51:53;101032.81;;;4.04;98.81
21203;BME280;10759;51.982;9.232;2023-03-04T01:54:21;100963.91;;;3.63;99.91
21203;BME280;10759;51.982;9.232;2023-03-04T01:56:51;101026.59;;;4.08;99.56
21203;BME280;10759;51.982;9.232;2023-03-04T01:59:20;100992.16;;;3.87;99.17
21203;BME280;10759;51.982;9.232;2023-03-04T02:01:52;100986.84;;;3.90;99.45
21203;BME280;10759;51.982;9.232;2023-03-04T02:04:23;100992.13;;;4.01;99.35
21203;BME280;10759;51.982;9.232;2023-03-04T02:06:53;101004.53;;;4.11;99.46
21203;BME280;10759;51.982;9.232;2023-03-04T02:09:21;100921.47;;;3.58;98.61
21203;BME280;10759;51.982;9.232;2023-03-04T02:11:50;100960.34;;;3.87;98.74
21203;BME280;10759;51.982;9.232;2023-03-04T02:14:19;101005.41;;;4.16;98.16
21203;BME280;10759;51.982;9.232;2023-03-04T02:16:50;100996.56;;;4.02;99.10
21203;BME280;10759;51.982;9.232;2023-03-04T02:19:18;100992.13;;;4.08;99.22
21203;BME280;10759;51.982;9.232;2023-03-04T02:21:55;100992.13;;;4.05;99.41
21203;BME280;10759;51.982;9.232;2023-03-04T02:24:27;100993.91;;;4.19;98.83
21203;BME280;10759;51.982;9.232;2023-03-04T02:26:59;100967.38;;;4.00;99.15
21203;BME280;10759;51.982;9.232;2023-03-04T02:29:27;100990.34;;;4.29;97.94
21203;BME280;10759;51.982;9.232;2023-03-04T02:31:55;100990.34;;;4.17;98.42
21203;BME280;10759;51.982;9.232;2023-03-04T02:34:27;100983.28;;;4.22;98.49
21203;BME280;10759;51.982;9.232;2023-03-04T02:36:56;100946.19;;;3.94;98.47
21203;BME280;10759;51.982;9.232;2023-03-04T02:39:30;100983.28;;;4.13;99.14
21203;BME280;10759;51.982;9.232;2023-03-04T02:42:01;100984.16;;;4.24;98.01
21203;BME280;10759;51.982;9.232;2023-03-04T02:44:33;100979.72;;;4.18;98.89
21203;BME280;10759;51.982;9.232;2023-03-04T02:47:02;100968.25;;;4.08;99.11
21203;BME280;10759;51.982;9.232;2023-03-04T02:49:31;100964.69;;;4.17;99.08
21203;BME280;10759;51.982;9.232;2023-03-04T02:52:02;100981.50;;;4.18;99.06
21203;BME280;10759;51.982;9.232;2023-03-04T02:54:31;100981.50;;;4.27;98.53
21203;BME280;10759;51.982;9.232;2023-03-04T02:57:03;100974.44;;;4.21;98.82
21203;BME280;10759;51.982;9.232;2023-03-04T02:59:34;100947.06;;;4.02;98.77
21203;BME280;10759;51.982;9.232;2023-03-04T03:02:03;100965.56;;;4.21;98.86
21203;BME280;10759;51.982;9.232;2023-03-04T03:04:33;100967.34;;;4.22;98.57
21203;BME280;10759;51.982;9.232;2023-03-04T03:07:06;100966.47;;;4.20;98.56
21203;BME280;10759;51.982;9.232;2023-03-04T03:09:35;100887.88;;;3.86;98.11
21203;BME280;10759;51.982;9.232;2023-03-04T03:12:05;100960.22;;;4.39;97.62
21203;BME280;10759;51.982;9.232;2023-03-04T03:14:32;100962.03;;;4.25;98.16
21203;BME280;10759;51.982;9.232;2023-03-04T03:17:02;100958.50;;;4.20;98.89
21203;BME280;10759;51.982;9.232;2023-03-04T03:19:30;100917.00;;;4.11;98.33
21203;BME280;10759;51.982;9.232;2023-03-04T03:22:01;100950.53;;;4.27;98.41
21203;BME280;10759;51.982;9.232;2023-03-04T03:24:29;100954.97;;;4.24;98.49
21203;BME280;10759;51.982;9.232;2023-03-04T03:26:57;100957.63;;;4.28;98.55
21203;BME280;10759;51.982;9.232;2023-03-04T03:29:26;100871.06;;;3.87;98.10
21203;BME280;10759;51.982;9.232;2023-03-04T03:31:54;100943.44;;;4.25;98.97
21203;BME280;10759;51.982;9.232;2023-03-04T03:34:22;100832.25;;;3.65;99.02
21203;BME280;10759;51.982;9.232;2023-03-04T03:36:50;100932.81;;;4.28;98.54
21203;BME280;10759;51.982;9.232;2023-03-04T03:39:18;100927.53;;;4.26;98.62
21203;BME280;10759;51.982;9.232;2023-03-04T03:41:46;100939.88;;;4.37;98.49
21203;BME280;10759;51.982;9.232;2023-03-04T03:44:15;100936.38;;;4.22;99.39
21203;BME280;10759;51.982;9.232;2023-03-04T03:46:44;100924.06;;;4.14;99.73
21203;BME280;10759;51.982;9.232;2023-03-04T03:49:12;100935.47;;;4.33;99.56
21203;BME280;10759;51.982;9.232;2023-03-04T03:51:40;100939.88;;;4.30;99.32
21203;BME280;10759;51.982;9.232;2023-03-04T03:54:08;100940.78;;;4.28;99.42
21203;BME280;10759;51.982;9.232;2023-03-04T03:56:36;100945.22;;;4.27;99.52
21203;BME280;10759;51.982;9.232;2023-03-04T03:59:04;100940.81;;;4.25;99.93
21203;BME280;10759;51.982;9.232;2023-03-04T04:01:32;100935.50;;;4.25;100.00
21203;BME280;10759;51.982;9.232;2023-03-04T04:04:02;100926.69;;;4.11;99.87
21203;BME280;10759;51.982;9.232;2023-03-04T04:06:29;100943.50;;;4.19;100.00
21203;BME280;10759;51.982;9.232;2023-03-04T04:08:57;100918.72;;;4.17;100.00
21203;BME280;10759;51.982;9.232;2023-03-04T04:11:25;100943.44;;;4.29;99.92
21203;BME280;10759;51.982;9.232;2023-03-04T04:13:53;100938.13;;;4.34;99.84
21203;BME280;10759;51.982;9.232;2023-03-04T04:16:21;100942.53;;;4.35;99.75
21203;BME280;10759;51.982;9.232;2023-03-04T04:18:49;100934.56;;;4.35;99.99
21203;BME280;10759;51.982;9.232;2023-03-04T04:21:18;100939.88;;;4.37;99.97
21203;BME280;10759;51.982;9.232;2023-03-04T04:23:46;100918.72;;;4.17;100.00
21203;BME280;10759;51.982;9.232;2023-03-04T04:26:14;100929.25;;;4.35;100.00
21203;BME280;10759;51.982;9.232;2023-03-04T04:28:42;100931.06;;;4.25;100.00
21203;BME280;10759;51.982;9.232;2023-03-04T04:31:10;100932.84;;;4.29;100.00
21203;BME280;10759;51.982;9.232;2023-03-04T04:33:38;100917.84;;;4.19;100.00
21203;BME280;10759;51.982;9.232;2023-03-04T04:36:08;100929.28;;;4.30;100.00
21203;BME280;10759;51.982;9.232;2023-03-04T04:38:37;100928.41;;;4.30;100.00
21203;BME280;10759;51.982;9.232;2023-03-04T04:41:15;100928.38;;;4.33;100.00
21203;BME280;10759;51.982;9.232;2023-03-04T04:43:44;100938.19;;;4.17;100.00
21203;BME280;10759;51.982;9.232;2023-03-04T04:46:12;100847.22;;;3.83;100.00
21203;BME280;10759;51.982;9.232;2023-03-04T04:48:40;100916.91;;;4.36;100.00
21203;BME280;10759;51.982;9.232;2023-03-04T04:51:09;100897.47;;;4.23;100.00
21203;BME280;10759;51.982;9.232;2023-03-04T04:53:38;100929.25;;;4.40;100.00
21203;BME280;10759;51.982;9.232;2023-03-04T04:56:11;100912.47;;;4.30;100.00
21203;BME280;10759;51.982;9.232;2023-03-04T04:58:40;100928.38;;;4.39;100.00
21203;BME280;10759;51.982;9.232;2023-03-04T05:01:08;100923.97;;;4.38;100.00
21203;BME280;10759;51.982;9.232;2023-03-04T05:03:37;100926.59;;;4.41;100.00
21203;BME280;10759;51.982;9.232;2023-03-04T05:06:08;100927.50;;;4.37;100.00
21203;BME280;10759;51.982;9.232;2023-03-04T05:08:36;100924.84;;;4.37;100.00
21203;BME280;10759;51.982;9.232;2023-03-04T05:11:05;100926.63;;;4.37;100.00
21203;BME280;10759;51.982;9.232;2023-03-04T05:13:33;100923.97;;;4.32;100.00
21203;BME280;10759;51.982;9.232;2023-03-04T05:16:02;100913.41;;;4.26;100.00
21203;BME280;10759;51.982;9.232;2023-03-04T05:18:30;100922.22;;;4.36;100.00
21203;BME280;10759;51.982;9.232;2023-03-04T05:20:59;100913.38;;;4.32;100.00
21203;BME280;10759;51.982;9.232;2023-03-04T05:23:30;100909.81;;;4.30;100.00
21203;BME280;10759;51.982;9.232;2023-03-04T05:25:58;100910.72;;;4.29;100.00
21203;BME280;10759;51.982;9.232;2023-03-04T05:28:28;100888.63;;;4.25;100.00
21203;BME280;10759;51.982;9.232;2023-03-04T05:30:56;100845.44;;;3.85;100.00
21203;BME280;10759;51.982;9.232;2023-03-04T05:33:24;100913.41;;;4.24;100.00
21203;BME280;10759;51.982;9.232;2023-03-04T05:35:52;100914.28;;;4.26;100.00
21203;BME280;10759;51.982;9.232;2023-03-04T05:38:21;100915.16;;;4.27;100.00
21203;BME280;10759;51.982;9.232;2023-03-04T05:40:49;100890.47;;;4.05;100.00
21203;BME280;10759;51.982;9.232;2023-03-04T05:43:21;100919.53;;;4.33;100.00
21203;BME280;10759;51.982;9.232;2023-03-04T05:45:51;100916.00;;;4.35;100.00
21203;BME280;10759;51.982;9.232;2023-03-04T05:48:18;100911.63;;;4.26;100.00
21203;BME280;10759;51.982;9.232;2023-03-04T05:50:52;100922.25;;;4.19;100.00
21203;BME280;10759;51.982;9.232;2023-03-04T05:53:20;100913.44;;;4.17;100.00
21203;BME280;10759;51.982;9.232;2023-03-04T05:55:48;100917.81;;;4.21;100.00
21203;BME280;10759;51.982;9.232;2023-03-04T05:58:17;100914.28;;;4.16;100.00
21203;BME280;10759;51.982;9.232;2023-03-04T06:00:46;100904.56;;;4.18;100.00
21203;BME280;10759;51.982;9.232;2023-03-04T06:03:17;100918.75;;;4.12;100.00
21203;BME280;10759;51.982;9.232;2023-03-04T06:05:45;100914.31;;;4.13;100.00
21203;BME280;10759;51.982;9.232;2023-03-04T06:08:14;100924.06;;;4.04;100.00
21203;BME280;10759;51.982;9.232;2023-03-04T06:10:42;100922.31;;;4.06;100.00
21203;BME280;10759;51.982;9.232;2023-03-04T06:13:10;100924.00;;;4.23;100.00
21203;BME280;10759;51.982;9.232;2023-03-04T06:15:39;100916.09;;;4.14;100.00
21203;BME280;10759;51.982;9.232;2023-03-04T06:18:07;100921.38;;;4.20;100.00
21203;BME280;10759;51.982;9.232;2023-03-04T06:20:36;100923.16;;;4.08;100.00
21203;BME280;10759;51.982;9.232;2023-03-04T06:23:04;100914.31;;;4.09;100.00
21203;BME280;10759;51.982;9.232;2023-03-04T06:25:32;100911.72;;;3.97;100.00
21203;BME280;10759;51.982;9.232;2023-03-04T06:28:00;100926.72;;;3.98;100.00
21203;BME280;10759;51.982;9.232;2023-03-04T06:30:28;100920.53;;;3.96;100.00
21203;BME280;10759;51.982;9.232;2023-03-04T06:32:56;100913.47;;;3.86;100.00
21203;BME280;10759;51.982;9.232;2023-03-04T06:35:24;100926.72;;;3.95;100.00
21203;BME280;10759;51.982;9.232;2023-03-04T06:37:53;100926.72;;;3.98;100.00
21203;BME280;10759;51.982;9.232;2023-03-04T06:40:21;100919.63;;;4.03;100.00
21203;BME280;10759;51.982;9.232;2023-03-04T06:42:49;100883.47;;;3.82;100.00
21203;BME280;10759;51.982;9.232;2023-03-04T06:45:17;100925.81;;;4.08;100.00
21203;BME280;10759;51.982;9.232;2023-03-04T06:47:44;100929.34;;;4.06;100.00
21203;BME280;10759;51.982;9.232;2023-03-04T06:50:12;100909.94;;;4.04;100.00
21203;BME280;10759;51.982;9.232;2023-03-04T06:52:40;100932.91;;;4.11;100.00
21203;BME280;10759;51.982;9.232;2023-03-04T06:55:10;100932.91;;;4.05;100.00
21203;BME280;10759;51.982;9.232;2023-03-04T06:57:38;100819.94;;;3.42;100.00
21203;BME280;10759;51.982;9.232;2023-03-04T07:00:07;100917.03;;;3.99;100.00
21203;BME280;10759;51.982;9.232;2023-03-04T07:02:35;100933.78;;;4.05;100.00
21203;BME280;10759;51.982;9.232;2023-03-04T07:05:04;100839.31;;;3.68;100.00
21203;BME280;10759;51.982;9.232;2023-03-04T07:07:32;100928.47;;;4.08;100.00
21203;BME280;10759;51.982;9.232;2023-03-04T07:09:59;100913.47;;;3.94;100.00
21203;BME280;10759;51.982;9.232;2023-03-04T07:12:29;100841.97;;;3.64;100.00
21203;BME280;10759;51.982;9.232;2023-03-04T07:14:57;100923.13;;;4.21;100.00
21203;BME280;10759;51.982;9.232;2023-03-04T07:17:24;100917.81;;;4.24;100.00
21203;BME280;10759;51.982;9.232;2023-03-04T07:19:52;100923.13;;;4.18;100.00
21203;BME280;10759;51.982;9.232;2023-03-04T07:22:20;100924.84;;;4.34;100.00
21203;BME280;10759;51.982;9.232;2023-03-04T07:24:48;100900.13;;;4.20;100.00
21203;BME280;10759;51.982;9.232;2023-03-04T07:27:16;100888.66;;;4.15;100.00
21203;BME280;10759;51.982;9.232;2023-03-04T07:29:45;100923.91;;;4.43;100.00
21203;BME280;10759;51.982;9.232;2023-03-04T07:32:13;100917.75;;;4.41;100.00
21203;BME280;10759;51.982;9.232;2023-03-04T07:34:41;100925.72;;;4.41;100.00
21203;BME280;10759;51.982;9.232;2023-03-04T07:37:09;100920.38;;;4.45;100.00
21203;BME280;10759;51.982;9.232;2023-03-04T07:39:37;100923.94;;;4.41;100.00
21203;BME280;10759;51.982;9.232;2023-03-04T07:42:05;100930.13;;;4.46;100.00
21203;BME280;10759;51.982;9.232;2023-03-04T07:44:38;100931.00;;;4.45;100.00
21203;BME280;10759;51.982;9.232;2023-03-04T07:47:07;100930.03;;;4.62;100.00
21203;BME280;10759;51.982;9.232;2023-03-04T07:49:35;100926.53;;;4.63;100.00
21203;BME280;10759;51.982;9.232;2023-03-04T07:52:03;100910.66;;;4.43;100.00
21203;BME280;10759;51.982;9.232;2023-03-04T07:54:31;100929.22;;;4.49;100.00
21203;BME280;10759;51.982;9.232;2023-03-04T07:56:59;100917.69;;;4.55;100.00
21203;BME280;10759;51.982;9.232;2023-03-04T07:59:27;100928.28;;;4.58;100.00
21203;BME280;10759;51.982;9.232;2023-03-04T08:01:55;100914.16;;;4.56;100.00
21203;BME280;10759;51.982;9.232;2023-03-04T08:04:24;100788.91;;;3.78;100.00
21203;BME280;10759;51.982;9.232;2023-03-04T08:06:52;100899.06;;;4.62;100.00
21203;BME280;10759;51.982;9.232;2023-03-04T08:09:20;100930.84;;;4.79;100.00
21203;BME280;10759;51.982;9.232;2023-03-04T08:11:48;100922.84;;;4.82;100.00
21203;BME280;10759;51.982;9.232;2023-03-04T08:14:16;100923.78;;;4.78;100.00
21203;BME280;10759;51.982;9.232;2023-03-04T08:16:44;100919.34;;;4.77;100.00
21203;BME280;10759;51.982;9.232;2023-03-04T08:19:12;100908.72;;;4.72;100.00
21203;BME280;10759;51.982;9.232;2023-03-04T08:21:41;100908.72;;;4.77;100.00
21203;BME280;10759;51.982;9.232;2023-03-04T08:24:10;100900.84;;;4.62;100.00
21203;BME280;10759;51.982;9.232;2023-03-04T08:26:40;100938.75;;;4.88;100.00
21203;BME280;10759;51.982;9.232;2023-03-04T08:29:10;100933.41;;;4.98;100.00
21203;BME280;10759;51.982;9.232;2023-03-04T08:31:39;100926.28;;;5.03;100.00
21203;BME280;10759;51.982;9.232;2023-03-04T08:34:07;100908.63;;;4.94;100.00
21203;BME280;10759;51.982;9.232;2023-03-04T08:36:37;100903.38;;;4.82;100.00
21203;BME280;10759;51.982;9.232;2023-03-04T08:39:06;100891.91;;;4.78;100.00
21203;BME280;10759;51.982;9.232;2023-03-04T08:41:34;100925.31;;;5.13;100.00
21203;BME280;10759;51.982;9.232;2023-03-04T08:44:02;100928.03;;;5.05;100.00
21203;BME280;10759;51.982;9.232;2023-03-04T08:46:30;100928.91;;;5.04;100.00
21203;BME280;10759;51.982;9.232;2023-03-04T08:48:59;100930.66;;;5.10;100.00
21203;BME280;10759;51.982;9.232;2023-03-04T08:51:27;100912.19;;;4.93;100.00
21203;BME280;10759;51.982;9.232;2023-03-04T08:53:55;100920.81;;;5.21;100.00
21203;BME280;10759;51.982;9.232;2023-03-04T08:56:24;100913.72;;;5.23;100.00
21203;BME280;10759;51.982;9.232;2023-03-04T08:58:52;100917.41;;;5.05;100.00
21203;BME280;10759;51.982;9.232;2023-03-04T09:01:20;100921.78;;;5.12;100.00
21203;BME280;10759;51.982;9.232;2023-03-04T09:03:48;100923.50;;;5.20;100.00
21203;BME280;10759;51.982;9.232;2023-03-04T09:06:17;100840.56;;;4.74;100.00
21203;BME280;10759;51.982;9.232;2023-03-04T09:08:45;100926.06;;;5.32;100.00
21203;BME280;10759;51.982;9.232;2023-03-04T09:11:13;100924.22;;;5.38;100.00
21203;BME280;10759;51.982;9.232;2023-03-04T09:13:42;100914.44;;;5.45;100.00
21203;BME280;10759;51.982;9.232;2023-03-04T09:16:12;100925.06;;;5.44;100.00
21203;BME280;10759;51.982;9.232;2023-03-04T09:18:41;100884.53;;;5.20;100.00
21203;BME280;10759;51.982;9.232;2023-03-04T09:21:09;100917.84;;;5.63;100.00
21203;BME280;10759;51.982;9.232;2023-03-04T09:23:38;100908.28;;;5.38;100.00
21203;BME280;10759;51.982;9.232;2023-03-04T09:26:18;100913.50;;;5.54;100.00
21203;BME280;10759;51.982;9.232;2023-03-04T09:28:50;100929.31;;;5.69;100.00
21203;BME280;10759;51.982;9.232;2023-03-04T09:31:19;100915.22;;;5.58;100.00
21203;BME280;10759;51.982;9.232;2023-03-04T09:33:47;100915.13;;;5.67;100.00
21203;BME280;10759;51.982;9.232;2023-03-04T09:36:15;100900.94;;;5.68;100.00
21203;BME280;10759;51.982;9.232;2023-03-04T09:38:43;100915.97;;;5.72;100.00
21203;BME280;10759;51.982;9.232;2023-03-04T09:41:14;100902.75;;;5.65;100.00
21203;BME280;10759;51.982;9.232;2023-03-04T09:43:43;100922.25;;;5.65;100.00
21203;BME280;10759;51.982;9.232;2023-03-04T09:46:15;100894.09;;;5.41;100.00
21203;BME280;10759;51.982;9.232;2023-03-04T09:48:46;100913.53;;;5.49;100.00
21203;BME280;10759;51.982;9.232;2023-03-04T09:51:20;100918.78;;;5.57;100.00
21203;BME280;10759;51.982;9.232;2023-03-04T09:54:03;100892.25;;;5.49;100.00
21203;BME280;10759;51.982;9.232;2023-03-04T09:56:34;100917.00;;;5.56;100.00
21203;BME280;10759;51.982;9.232;2023-03-04T09:59:11;100871.09;;;5.34;100.00
21203;BME280;10759;51.982;9.232;2023-03-04T10:01:47;100907.31;;;5.52;100.00
21203;BME280;10759;51.982;9.232;2023-03-04T10:04:21;100909.06;;;5.54;100.00
21203;BME280;10759;51.982;9.232;2023-03-04T10:06:53;100911.75;;;5.50;100.00
21203;BME280;10759;51.982;9.232;2023-03-04T10:09:25;100908.03;;;5.69;100.00
21203;BME280;10759;51.982;9.232;2023-03-04T10:12:00;100901.72;;;5.81;100.00
21203;BME280;10759;51.982;9.232;2023-03-04T10:14:33;100896.31;;;5.86;100.00
21203;BME280;10759;51.982;9.232;2023-03-04T10:17:07;100902.59;;;5.81;100.00
21203;BME280;10759;51.982;9.232;2023-03-04T10:19:57;100900.88;;;5.74;100.00
21203;BME280;10759;51.982;9.232;2023-03-04T10:22:31;100862.91;;;5.58;100.00
21203;BME280;10759;51.982;9.232;2023-03-04T10:25:14;100900.06;;;5.69;100.00
21203;BME280;10759;51.982;9.232;2023-03-04T10:27:48;100888.41;;;5.79;100.00
21203;BME280;10759;51.982;9.232;2023-03-04T10:30:25;100884.94;;;5.74;100.00
21203;BME280;10759;51.982;9.232;2023-03-04T10:32:57;100897.28;;;5.81;100.00
21203;BME280;10759;51.982;9.232;2023-03-04T10:35:32;100885.72;;;5.82;100.00
21203;BME280;10759;51.982;9.232;2023-03-04T10:38:03;100882.97;;;5.95;100.00
21203;BME280;10759;51.982;9.232;2023-03-04T10:43:04;100822.97;;;5.63;100.00
21203;BME280;10759;51.982;9.232;2023-03-04T10:45:37;100879.28;;;6.05;100.00
21203;BME280;10759;51.982;9.232;2023-03-04T10:48:17;100877.78;;;5.79;100.00
21203;BME280;10759;51.982;9.232;2023-03-04T10:50:45;100881.22;;;5.91;100.00
21203;BME280;10759;51.982;9.232;2023-03-04T10:53:38;100880.44;;;5.81;100.00
21203;BME280;10759;51.982;9.232;2023-03-04T10:56:35;100874.13;;;5.91;100.00
21203;BME280;10759;51.982;9.232;2023-03-04T10:59:24;100875.88;;;5.92;100.00
21203;BME280;10759;51.982;9.232;2023-03-04T11:01:56;100881.25;;;5.86;100.00
21203;BME280;10759;51.982;9.232;2023-03-04T11:04:31;100808.09;;;5.47;100.00
21203;BME280;10759;51.982;9.232;2023-03-04T11:06:59;100891.06;;;5.79;100.00
21203;BME280;10759;51.982;9.232;2023-03-04T11:09:29;100884.06;;;5.71;100.00
21203;BME280;10759;51.982;9.232;2023-03-04T11:12:00;100876.94;;;5.73;100.00
21203;BME280;10759;51.982;9.232;2023-03-04T11:14:33;100887.59;;;5.76;100.00
21203;BME280;10759;51.982;9.232;2023-03-04T11:17:16;100832.16;;;5.34;100.00
21203;BME280;10759;51.982;9.232;2023-03-04T11:19:47;100866.31;;;5.76;100.00
21203;BME280;10759;51.982;9.232;2023-03-04T11:22:20;100852.94;;;5.80;100.00
21203;BME280;10759;51.982;9.232;2023-03-04T11:24:55;100868.84;;;5.88;100.00
21203;BME280;10759;51.982;9.232;2023-03-04T11:27:33;100858.16;;;5.90;100.00
21203;BME280;10759;51.982;9.232;2023-03-04T11:30:18;100877.56;;;6.02;100.00
21203;BME280;10759;51.982;9.232;2023-03-04T11:32:50;100866.94;;;6.01;100.00
21203;BME280;10759;51.982;9.232;2023-03-04T11:35:24;100870.38;;;6.09;100.00
21203;BME280;10759;51.982;9.232;2023-03-04T11:37:59;100845.91;;;5.76;100.00
21203;BME280;10759;51.982;9.232;2023-03-04T11:40:35;100877.78;;;5.79;100.00
21203;BME280;10759;51.982;9.232;2023-03-04T11:43:10;100875.03;;;5.89;100.00
21203;BME280;10759;51.982;9.232;2023-03-04T11:46:01;100872.50;;;5.75;100.00
21203;BME280;10759;51.982;9.232;2023-03-04T11:48:44;100873.25;;;5.89;100.00
21203;BME280;10759;51.982;9.232;2023-03-04T11:51:23;100870.44;;;6.05;100.00
21203;BME280;10759;51.982;9.232;2023-03-04T11:54:10;100865.84;;;6.17;100.00
21203;BME280;10759;51.982;9.232;2023-03-04T11:56:44;100863.03;;;6.30;100.00
21203;BME280;10759;51.982;9.232;2023-03-04T11:59:33;100861.13;;;6.41;100.00
21203;BME280;10759;51.982;9.232;2023-03-04T12:02:14;100822.28;;;6.24;100.00
21203;BME280;10759;51.982;9.232;2023-03-04T12:08:10;100855.84;;;6.38;100.00
21203;BME280;10759;51.982;9.232;2023-03-04T12:10:47;100806.19;;;6.35;100.00
21203;BME280;10759;51.982;9.232;2023-03-04T12:19:46;100821.31;;;6.92;98.32
21203;BME280;10759;51.982;9.232;2023-03-04T12:22:27;100821.28;;;6.95;99.13
21203;BME280;10759;51.982;9.232;2023-03-04T12:25:43;100824.84;;;6.94;100.00
21203;BME280;10759;51.982;9.232;2023-03-04T12:28:24;100657.78;;;5.88;99.20
21203;BME280;10759;51.982;9.232;2023-03-04T12:31:06;100817.19;;;6.73;99.15
21203;BME280;10759;51.982;9.232;2023-03-04T12:33:41;100742.63;;;6.12;100.00
21203;BME280;10759;51.982;9.232;2023-03-04T12:36:17;100798.03;;;6.46;100.00
21203;BME280;10759;51.982;9.232;2023-03-04T12:38:58;100812.09;;;6.57;100.00
21203;BME280;10759;51.982;9.232;2023-03-04T12:41:43;100820.03;;;6.60;100.00
21203;BME280;10759;51.982;9.232;2023-03-04T12:44:16;100807.47;;;6.69;99.28
21203;BME280;10759;51.982;9.232;2023-03-04T12:47:02;100774.56;;;6.71;100.00
21203;BME280;10759;51.982;9.232;2023-03-04T12:49:52;100794.69;;;6.92;98.95
21203;BME280;10759;51.982;9.232;2023-03-04T12:52:31;100791.28;;;6.81;98.92
21203;BME280;10759;51.982;9.232;2023-03-04T12:55:02;100794.72;;;6.89;98.47
21203;BME280;10759;51.982;9.232;2023-03-04T12:57:33;100784.91;;;6.93;99.63
21203;BME280;10759;51.982;9.232;2023-03-04T13:00:12;100773.84;;;6.63;100.00
21203;BME280;10759;51.982;9.232;2023-03-04T13:02:53;100799.34;;;6.78;100.00
21203;BME280;10759;51.982;9.232;2023-03-04T13:05:31;100799.91;;;6.41;100.00
21203;BME280;10759;51.982;9.232;2023-03-04T13:08:10;100805.22;;;6.42;100.00
21203;BME280;10759;51.982;9.232;2023-03-04T13:10:40;100719.75;;;5.99;100.00
21203;BME280;10759;51.982;9.232;2023-03-04T13:13:34;100810.66;;;6.33;100.00
21203;BME280;10759;51.982;9.232;2023-03-04T13:16:04;100812.56;;;6.22;100.00
21203;BME280;10759;51.982;9.232;2023-03-04T13:18:33;100797.63;;;6.10;100.00
21203;BME280;10759;51.982;9.232;2023-03-04T13:21:15;100718.69;;;5.40;100.00
21203;BME280;10759;51.982;9.232;2023-03-04T13:23:47;100800.47;;;5.96;100.00